Time;durP1;ratioP1;P1;durP2;ratioP2;P2;SDS_P1;SDS_P2;PMS_P1;PMS_P2;Temp;Humidity;BMP_temperature;BMP_pressure;BME280_temperature;BME280_humidity;BME280_pressure;Samples;Min_cycle;Max_cycle;Signal;HPM_P1;HPM_P2
2021/08/23 00:00:33;;;;;;;10.75;9.65;;;;;;;;;;2074687;28;20179;-49
2021/08/23 00:01:35;;;;;;;10.93;9.82;;;;;;;;;;2073010;28;20176;-49
2021/08/23 00:02:35;;;;;;;11.18;10.18;;;;;;;;;;2073120;28;20191;-50
2021/08/23 00:03:35;;;;;;;11.57;10.38;;;;;;;;;;2073654;28;20216;-50
2021/08/23 00:04:36;;;;;;;10.70;9.60;;;;;;;;;;2081680;28;20629;-52
2021/08/23 00:05:36;;;;;;;10.95;9.85;;;;;;;;;;2075786;28;20173;-54
2021/08/23 00:06:36;;;;;;;10.43;9.40;;;;;;;;;;2081463;28;20179;-50
2021/08/23 00:07:36;;;;;;;9.27;8.38;;;;;;;;;;2081020;28;20698;-47
2021/08/23 00:08:37;;;;;;;10.40;9.50;;;;;;;;;;2074787;28;20161;-52
2021/08/23 00:09:37;;;;;;;10.10;9.15;;;;;;;;;;2073287;28;20189;-53
2021/08/23 00:10:37;;;;;;;11.43;9.85;;;;;;;;;;2056354;28;20178;-56
2021/08/23 00:11:38;;;;;;;10.90;9.80;;;;;;;;;;2063489;28;20609;-54
2021/08/23 00:12:38;;;;;;;12.68;9.05;;;;;;;;;;2074368;28;20205;-53
2021/08/23 00:13:38;;;;;;;11.05;9.85;;;;;;;;;;2083346;28;20182;-57
2021/08/23 00:14:38;;;;;;;10.40;9.40;;;;;;;;;;2079009;28;20208;-57
2021/08/23 00:15:40;;;;;;;10.55;9.43;;;;;;;;;;2076154;28;20181;-57
2021/08/23 00:16:40;;;;;;;10.18;9.13;;;;;;;;;;2076141;28;20630;-51
2021/08/23 00:17:41;;;;;;;9.75;8.75;;;;;;;;;;2075285;28;20181;-53
2021/08/23 00:18:43;;;;;;;10.60;9.48;;;;;;;;;;2062648;28;20189;-51
2021/08/23 00:19:43;;;;;;;11.30;9.57;;;;;;;;;;2072134;28;20161;-51
2021/08/23 00:20:50;;;;;;;10.15;9.23;;;;;;;;;;2066302;28;20178;-51
2021/08/23 00:22:00;;;;;;;11.13;10.13;;;;;;;;;;2072445;28;20217;-53
2021/08/23 00:23:02;;;;;;;10.98;9.98;;;;;;;;;;2080769;28;20191;-49
2021/08/23 00:24:06;;;;;;;10.48;9.48;;;;;;;;;;2080912;28;20264;-54
2021/08/23 00:25:06;;;;;;;10.30;9.40;;;;;;;;;;2078172;28;20181;-51
2021/08/23 00:26:07;;;;;;;10.43;9.43;;;;;;;;;;2080699;28;20180;-49
2021/08/23 00:27:07;;;;;;;11.57;10.45;;;;;;;;;;2072576;28;20221;-56
2021/08/23 00:28:08;;;;;;;12.15;10.95;;;;;;;;;;2063220;28;20921;-54
2021/08/23 00:29:09;;;;;;;10.88;9.82;;;;;;;;;;2069612;28;20673;-50
2021/08/23 00:30:10;;;;;;;11.13;10.02;;;;;;;;;;2081351;28;20229;-47
2021/08/23 00:31:10;;;;;;;11.00;9.98;;;;;;;;;;2080604;28;20242;-54
2021/08/23 00:32:11;;;;;;;9.88;8.88;;;;;;;;;;2079034;28;20196;-53
2021/08/23 00:33:11;;;;;;;12.50;10.27;;;;;;;;;;2078084;28;20215;-50
2021/08/23 00:34:12;;;;;;;11.95;10.85;;;;;;;;;;2080921;28;20204;-50
2021/08/23 00:35:12;;;;;;;11.52;10.15;;;;;;;;;;2070322;28;20231;-54
2021/08/23 00:36:12;;;;;;;11.82;10.63;;;;;;;;;;2071583;28;20172;-52
2021/08/23 00:37:13;;;;;;;10.75;9.75;;;;;;;;;;2079844;28;20632;-51
2021/08/23 00:38:13;;;;;;;12.32;10.98;;;;;;;;;;2080392;28;20653;-52
2021/08/23 00:39:14;;;;;;;11.95;10.77;;;;;;;;;;2080028;28;20188;-52
2021/08/23 00:40:14;;;;;;;12.20;11.00;;;;;;;;;;2080755;28;20198;-53
2021/08/23 00:41:14;;;;;;;12.20;10.95;;;;;;;;;;2079670;28;20642;-54
2021/08/23 00:42:15;;;;;;;11.30;10.13;;;;;;;;;;2080575;28;20184;-50
2021/08/23 00:43:15;;;;;;;12.95;11.02;;;;;;;;;;2080311;28;20160;-49
2021/08/23 00:44:15;;;;;;;13.25;11.90;;;;;;;;;;2071850;28;20255;-50
2021/08/23 00:45:15;;;;;;;13.02;11.63;;;;;;;;;;2070189;28;20181;-51
2021/08/23 00:46:16;;;;;;;12.73;11.50;;;;;;;;;;2079160;28;20202;-49
2021/08/23 00:47:16;;;;;;;13.93;11.50;;;;;;;;;;2080445;28;20259;-52
2021/08/23 00:48:16;;;;;;;14.20;12.10;;;;;;;;;;2079508;28;20555;-52
2021/08/23 00:49:16;;;;;;;14.27;12.82;;;;;;;;;;2080336;28;20180;-51
2021/08/23 00:50:17;;;;;;;13.13;11.93;;;;;;;;;;2079236;28;20229;-52
2021/08/23 00:51:18;;;;;;;14.90;12.18;;;;;;;;;;2079841;28;20230;-52
2021/08/23 00:52:18;;;;;;;13.60;12.20;;;;;;;;;;2074653;28;20201;-48
2021/08/23 00:53:19;;;;;;;12.73;11.43;;;;;;;;;;2078823;28;20194;-53
2021/08/23 00:54:19;;;;;;;15.05;13.45;;;;;;;;;;2078075;28;20661;-56
2021/08/23 00:55:20;;;;;;;13.57;11.27;;;;;;;;;;2074026;28;20227;-55
2021/08/23 00:56:20;;;;;;;13.68;12.25;;;;;;;;;;2078828;28;20259;-54
2021/08/23 00:57:21;;;;;;;13.02;11.63;;;;;;;;;;2072837;28;20183;-51
2021/08/23 00:58:21;;;;;;;13.50;12.15;;;;;;;;;;2078978;28;20256;-49
2021/08/23 00:59:22;;;;;;;17.33;12.60;;;;;;;;;;2076857;28;20178;-53
2021/08/23 01:00:22;;;;;;;13.85;12.45;;;;;;;;;;2080256;28;20653;-49
2021/08/23 01:01:23;;;;;;;13.73;12.30;;;;;;;;;;2080372;28;20164;-52
2021/08/23 01:02:23;;;;;;;12.75;11.50;;;;;;;;;;2071807;28;20224;-46
2021/08/23 01:03:28;;;;;;;13.70;12.43;;;;;;;;;;2069448;28;20280;-54
2021/08/23 01:04:31;;;;;;;14.32;12.82;;;;;;;;;;2078042;28;20176;-53
2021/08/23 01:05:32;;;;;;;13.48;12.07;;;;;;;;;;2072533;28;20172;-52
2021/08/23 01:06:32;;;;;;;14.75;12.60;;;;;;;;;;2080596;28;20213;-51
2021/08/23 01:07:38;;;;;;;13.95;12.57;;;;;;;;;;2078501;28;20164;-53
2021/08/23 01:08:40;;;;;;;13.90;12.02;;;;;;;;;;2080622;28;20192;-49
2021/08/23 01:09:42;;;;;;;14.18;12.68;;;;;;;;;;2070144;28;20181;-53
2021/08/23 01:10:47;;;;;;;16.65;12.77;;;;;;;;;;2071886;28;20237;-52
2021/08/23 01:11:50;;;;;;;15.50;13.98;;;;;;;;;;2077851;28;20226;-49
2021/08/23 01:12:53;;;;;;;16.90;14.20;;;;;;;;;;2081079;28;20600;-53
2021/08/23 01:13:55;;;;;;;15.30;13.80;;;;;;;;;;2080388;28;20222;-54
2021/08/23 01:14:58;;;;;;;14.90;13.38;;;;;;;;;;2081119;28;20631;-52
2021/08/23 01:15:59;;;;;;;16.80;14.23;;;;;;;;;;2076412;28;20178;-51
2021/08/23 01:17:00;;;;;;;13.50;12.20;;;;;;;;;;2079973;28;20180;-47
2021/08/23 01:18:00;;;;;;;14.18;12.88;;;;;;;;;;2080732;28;20262;-51
2021/08/23 01:19:00;;;;;;;14.90;13.40;;;;;;;;;;2078647;28;20168;-55
2021/08/23 01:20:03;;;;;;;14.75;13.18;;;;;;;;;;2079047;28;20698;-51
2021/08/23 01:21:06;;;;;;;15.70;14.15;;;;;;;;;;2074750;28;20219;-49
2021/08/23 01:22:10;;;;;;;14.48;12.98;;;;;;;;;;2080905;28;20249;-50
2021/08/23 01:23:11;;;;;;;15.85;14.15;;;;;;;;;;2079762;28;20161;-46
2021/08/23 01:24:12;;;;;;;14.45;12.93;;;;;;;;;;2080470;28;20177;-49
2021/08/23 01:25:16;;;;;;;14.57;13.20;;;;;;;;;;2076716;28;20193;-50
2021/08/23 01:26:19;;;;;;;15.23;13.80;;;;;;;;;;2079405;28;20172;-47
2021/08/23 01:27:20;;;;;;;17.80;14.00;;;;;;;;;;2071466;28;20247;-49
2021/08/23 01:28:22;;;;;;;15.88;14.32;;;;;;;;;;2070482;28;20220;-52
2021/08/23 01:29:22;;;;;;;14.98;13.40;;;;;;;;;;2073418;28;20188;-49
2021/08/23 01:30:22;;;;;;;15.50;13.95;;;;;;;;;;2079481;28;20619;-54
2021/08/23 01:31:25;;;;;;;14.95;13.60;;;;;;;;;;2073743;28;20184;-54
2021/08/23 01:32:26;;;;;;;15.80;14.13;;;;;;;;;;2080457;28;20234;-54
2021/08/23 01:33:27;;;;;;;15.98;13.65;;;;;;;;;;2064096;28;20235;-52
2021/08/23 01:34:27;;;;;;;15.00;13.55;;;;;;;;;;2069242;28;20701;-52
2021/08/23 01:35:28;;;;;;;16.98;15.38;;;;;;;;;;2071829;28;20173;-51
2021/08/23 01:36:28;;;;;;;16.15;14.55;;;;;;;;;;2071613;28;20172;-50
2021/08/23 01:37:29;;;;;;;15.45;13.95;;;;;;;;;;2072000;28;20760;-48
2021/08/23 01:38:29;;;;;;;14.70;13.20;;;;;;;;;;2079162;28;20165;-50
2021/08/23 01:39:32;;;;;;;16.15;14.45;;;;;;;;;;2071470;28;20563;-52
2021/08/23 01:40:32;;;;;;;15.60;14.13;;;;;;;;;;2071271;28;20239;-53
2021/08/23 01:41:32;;;;;;;14.77;13.50;;;;;;;;;;2082650;28;20536;-52
2021/08/23 01:42:34;;;;;;;15.52;14.02;;;;;;;;;;2071264;28;20280;-54
2021/08/23 01:43:35;;;;;;;16.23;14.68;;;;;;;;;;2067820;28;20181;-51
2021/08/23 01:44:35;;;;;;;18.23;14.88;;;;;;;;;;2071900;28;20223;-51
2021/08/23 01:45:35;;;;;;;13.55;12.32;;;;;;;;;;2073350;28;20192;-50
2021/08/23 01:46:36;;;;;;;15.77;14.18;;;;;;;;;;2081586;28;20231;-53
2021/08/23 01:47:36;;;;;;;15.13;13.82;;;;;;;;;;2081966;28;20173;-53
2021/08/23 01:48:36;;;;;;;15.95;14.35;;;;;;;;;;2080766;28;20181;-55
2021/08/23 01:49:37;;;;;;;15.52;14.07;;;;;;;;;;2081787;28;20179;-53
2021/08/23 01:50:37;;;;;;;15.20;13.75;;;;;;;;;;2081181;28;20191;-53
2021/08/23 01:51:38;;;;;;;15.55;14.13;;;;;;;;;;2072996;28;20267;-50
2021/08/23 01:52:38;;;;;;;17.20;15.18;;;;;;;;;;2071542;28;20284;-52
2021/08/23 01:53:39;;;;;;;15.77;14.30;;;;;;;;;;2078777;28;20185;-51
2021/08/23 01:54:42;;;;;;;16.42;14.73;;;;;;;;;;2081683;28;20199;-52
2021/08/23 01:55:42;;;;;;;16.33;14.73;;;;;;;;;;2081902;28;20180;-50
2021/08/23 01:56:43;;;;;;;17.40;15.70;;;;;;;;;;2075707;28;20183;-55
2021/08/23 01:57:43;;;;;;;16.63;15.02;;;;;;;;;;2079996;28;20206;-53
2021/08/23 01:58:43;;;;;;;16.35;14.85;;;;;;;;;;2081462;28;20188;-53
2021/08/23 01:59:44;;;;;;;15.48;13.88;;;;;;;;;;2081572;28;20187;-53
2021/08/23 02:00:44;;;;;;;16.58;14.95;;;;;;;;;;2076013;28;20176;-53
2021/08/23 02:01:44;;;;;;;15.73;14.18;;;;;;;;;;2081666;28;20176;-51
2021/08/23 02:02:44;;;;;;;16.45;14.85;;;;;;;;;;2082307;28;20160;-54
2021/08/23 02:03:45;;;;;;;16.50;14.85;;;;;;;;;;2080796;28;20234;-52
2021/08/23 02:04:45;;;;;;;16.65;15.05;;;;;;;;;;2073121;28;20219;-54
2021/08/23 02:05:46;;;;;;;16.40;14.75;;;;;;;;;;2073998;28;20169;-46
2021/08/23 02:06:47;;;;;;;17.33;15.15;;;;;;;;;;2079148;28;20192;-54
2021/08/23 02:07:47;;;;;;;14.70;13.30;;;;;;;;;;2082608;28;20176;-56
2021/08/23 02:08:48;;;;;;;15.95;14.45;;;;;;;;;;2072902;28;20209;-53
2021/08/23 02:09:48;;;;;;;15.55;13.88;;;;;;;;;;2069872;28;20185;-50
2021/08/23 02:10:48;;;;;;;15.80;14.27;;;;;;;;;;2081748;28;20266;-51
2021/08/23 02:11:49;;;;;;;16.90;15.00;;;;;;;;;;2082132;28;20168;-53
2021/08/23 02:12:49;;;;;;;17.05;14.40;;;;;;;;;;2082392;28;20184;-53
2021/08/23 02:13:50;;;;;;;15.68;13.88;;;;;;;;;;2082135;28;21497;-54
2021/08/23 02:14:50;;;;;;;16.75;13.95;;;;;;;;;;2079420;28;20168;-52
2021/08/23 02:15:50;;;;;;;16.10;14.40;;;;;;;;;;2081960;28;20539;-51
2021/08/23 02:16:54;;;;;;;16.30;14.82;;;;;;;;;;2074583;28;20173;-53
2021/08/23 02:17:54;;;;;;;16.05;14.48;;;;;;;;;;2075569;28;20187;-47
2021/08/23 02:18:55;;;;;;;16.08;14.48;;;;;;;;;;2077444;28;20211;-51
2021/08/23 02:19:55;;;;;;;15.52;14.13;;;;;;;;;;2081781;28;20173;-52
2021/08/23 02:20:55;;;;;;;16.77;14.45;;;;;;;;;;2081416;28;20180;-52
2021/08/23 02:21:56;;;;;;;17.20;15.13;;;;;;;;;;2082004;28;20168;-52
2021/08/23 02:22:56;;;;;;;16.45;14.77;;;;;;;;;;2070532;28;20271;-52
2021/08/23 02:23:56;;;;;;;16.05;14.45;;;;;;;;;;2068772;28;20169;-53
2021/08/23 02:24:56;;;;;;;16.08;14.52;;;;;;;;;;2079375;28;20176;-54
2021/08/23 02:25:57;;;;;;;16.75;15.15;;;;;;;;;;2082271;28;20195;-53
2021/08/23 02:26:57;;;;;;;16.25;14.55;;;;;;;;;;2082026;28;20320;-51
2021/08/23 02:27:57;;;;;;;17.42;14.52;;;;;;;;;;2081132;28;20172;-55
2021/08/23 02:28:57;;;;;;;16.23;14.50;;;;;;;;;;2081855;28;20590;-53
2021/08/23 02:29:58;;;;;;;16.48;14.75;;;;;;;;;;2077448;28;20645;-54
2021/08/23 02:30:58;;;;;;;20.48;15.00;;;;;;;;;;2081630;28;20239;-57
2021/08/23 02:31:58;;;;;;;17.00;15.35;;;;;;;;;;2076642;28;20592;-54
2021/08/23 02:32:58;;;;;;;17.02;15.23;;;;;;;;;;2081372;28;20606;-50
2021/08/23 02:33:59;;;;;;;16.13;14.50;;;;;;;;;;2081535;28;20645;-53
2021/08/23 02:35:00;;;;;;;16.17;14.57;;;;;;;;;;2080594;28;20251;-49
2021/08/23 02:36:00;;;;;;;17.10;15.30;;;;;;;;;;2081485;28;20180;-54
2021/08/23 02:37:00;;;;;;;17.15;14.00;;;;;;;;;;2082162;28;20221;-51
2021/08/23 02:38:01;;;;;;;16.75;13.98;;;;;;;;;;2081801;28;20175;-54
2021/08/23 02:39:03;;;;;;;15.88;13.40;;;;;;;;;;2082104;28;20204;-52
2021/08/23 02:40:04;;;;;;;16.13;14.25;;;;;;;;;;2081458;28;20267;-53
2021/08/23 02:41:04;;;;;;;16.17;13.00;;;;;;;;;;2082125;28;20168;-54
2021/08/23 02:42:05;;;;;;;19.27;14.68;;;;;;;;;;2082114;28;20192;-49
2021/08/23 02:43:05;;;;;;;17.48;13.52;;;;;;;;;;2065364;28;20177;-50
2021/08/23 02:44:05;;;;;;;14.40;13.02;;;;;;;;;;2064369;28;20184;-54
2021/08/23 02:45:06;;;;;;;14.88;13.48;;;;;;;;;;2079151;28;20179;-54
2021/08/23 02:46:06;;;;;;;14.63;12.98;;;;;;;;;;2082358;28;20306;-52
2021/08/23 02:47:06;;;;;;;13.73;12.55;;;;;;;;;;2082207;28;20180;-50
2021/08/23 02:48:06;;;;;;;14.55;13.07;;;;;;;;;;2081862;28;20179;-50
2021/08/23 02:49:07;;;;;;;13.85;12.32;;;;;;;;;;2081927;28;20240;-50
2021/08/23 02:50:08;;;;;;;13.60;12.20;;;;;;;;;;2082229;28;20170;-52
2021/08/23 02:51:09;;;;;;;14.02;12.65;;;;;;;;;;2082236;28;20171;-53
2021/08/23 02:52:09;;;;;;;14.50;11.73;;;;;;;;;;2079269;28;20202;-55
2021/08/23 02:53:10;;;;;;;13.32;12.10;;;;;;;;;;2073829;28;20200;-51
2021/08/23 02:54:10;;;;;;;13.93;12.68;;;;;;;;;;2074089;28;20196;-54
2021/08/23 02:55:10;;;;;;;13.60;12.18;;;;;;;;;;2074935;28;20532;-52
2021/08/23 02:56:11;;;;;;;14.25;12.77;;;;;;;;;;2074163;28;20183;-53
2021/08/23 02:57:11;;;;;;;14.32;12.80;;;;;;;;;;2074061;28;20740;-50
2021/08/23 02:58:11;;;;;;;13.13;11.77;;;;;;;;;;2073731;28;20191;-53
2021/08/23 02:59:12;;;;;;;14.02;12.40;;;;;;;;;;2074014;28;20185;-55
2021/08/23 03:00:12;;;;;;;14.50;13.07;;;;;;;;;;2078594;28;20208;-51
2021/08/23 03:01:13;;;;;;;14.27;12.63;;;;;;;;;;2074027;28;20169;-53
2021/08/23 03:02:13;;;;;;;15.80;13.27;;;;;;;;;;2078245;28;20196;-52
2021/08/23 03:03:13;;;;;;;15.18;13.57;;;;;;;;;;2081533;28;20175;-54
2021/08/23 03:04:13;;;;;;;15.55;14.05;;;;;;;;;;2080445;28;20188;-50
2021/08/23 03:05:14;;;;;;;14.82;13.43;;;;;;;;;;2080817;28;20655;-52
2021/08/23 03:06:14;;;;;;;15.10;13.55;;;;;;;;;;2079068;28;20683;-54
2021/08/23 03:07:14;;;;;;;15.88;14.30;;;;;;;;;;2080967;28;20238;-53
2021/08/23 03:08:14;;;;;;;15.02;13.43;;;;;;;;;;2079057;28;20449;-55
2021/08/23 03:09:15;;;;;;;15.82;14.25;;;;;;;;;;2079015;28;20168;-48
2021/08/23 03:10:15;;;;;;;17.27;14.45;;;;;;;;;;2075516;28;20203;-54
2021/08/23 03:11:15;;;;;;;18.35;15.50;;;;;;;;;;2077991;28;20636;-56
2021/08/23 03:12:16;;;;;;;15.43;13.90;;;;;;;;;;2079397;28;20200;-56
2021/08/23 03:13:16;;;;;;;15.88;14.20;;;;;;;;;;2079528;28;20238;-54
2021/08/23 03:14:16;;;;;;;16.13;13.85;;;;;;;;;;2080039;28;20195;-53
2021/08/23 03:15:16;;;;;;;16.55;14.00;;;;;;;;;;2081143;28;20191;-53
2021/08/23 03:16:17;;;;;;;17.05;14.40;;;;;;;;;;2081511;28;20196;-54
2021/08/23 03:17:17;;;;;;;16.30;14.57;;;;;;;;;;2081439;28;20759;-54
2021/08/23 03:18:17;;;;;;;15.88;14.05;;;;;;;;;;2077062;28;20210;-54
2021/08/23 03:19:17;;;;;;;16.30;13.93;;;;;;;;;;2081189;28;20168;-54
2021/08/23 03:20:18;;;;;;;17.33;13.88;;;;;;;;;;2080953;28;20203;-56
2021/08/23 03:21:18;;;;;;;15.57;13.93;;;;;;;;;;2081195;28;20172;-54
2021/08/23 03:22:18;;;;;;;17.08;14.52;;;;;;;;;;2080998;28;20200;-53
2021/08/23 03:23:19;;;;;;;18.83;14.88;;;;;;;;;;2076374;28;20169;-55
2021/08/23 03:24:19;;;;;;;14.52;13.02;;;;;;;;;;2071885;28;20180;-55
2021/08/23 03:25:20;;;;;;;15.40;13.88;;;;;;;;;;2066299;28;20330;-61
2021/08/23 03:26:20;;;;;;;15.75;14.15;;;;;;;;;;2072219;28;20272;-57
2021/08/23 03:27:21;;;;;;;16.23;14.68;;;;;;;;;;2081065;28;20214;-51
2021/08/23 03:28:22;;;;;;;14.30;12.98;;;;;;;;;;2066441;28;20166;-54
2021/08/23 03:29:23;;;;;;;15.55;14.15;;;;;;;;;;2072347;28;20715;-50
2021/08/23 03:30:23;;;;;;;15.00;13.43;;;;;;;;;;2080021;28;20180;-50
2021/08/23 03:31:23;;;;;;;14.07;12.68;;;;;;;;;;2081204;28;20245;-52
2021/08/23 03:32:23;;;;;;;16.42;13.30;;;;;;;;;;2072213;28;20247;-55
2021/08/23 03:33:24;;;;;;;15.85;14.20;;;;;;;;;;2070440;28;20255;-52
2021/08/23 03:34:24;;;;;;;15.15;13.20;;;;;;;;;;2076773;28;20289;-56
2021/08/23 03:35:25;;;;;;;14.70;13.23;;;;;;;;;;2065038;28;20887;-53
2021/08/23 03:36:25;;;;;;;16.08;14.43;;;;;;;;;;2070709;28;20177;-54
2021/08/23 03:37:25;;;;;;;13.98;12.65;;;;;;;;;;2080735;28;20178;-51
2021/08/23 03:38:26;;;;;;;14.77;13.38;;;;;;;;;;2080462;28;20180;-48
2021/08/23 03:39:27;;;;;;;14.80;13.25;;;;;;;;;;2077955;28;20545;-52
2021/08/23 03:40:28;;;;;;;20.88;14.13;;;;;;;;;;2077010;28;20180;-53
2021/08/23 03:41:28;;;;;;;15.32;13.75;;;;;;;;;;2065634;28;20166;-52
2021/08/23 03:42:28;;;;;;;15.75;14.10;;;;;;;;;;2072960;28;20235;-53
2021/08/23 03:43:29;;;;;;;24.38;14.00;;;;;;;;;;2083111;28;20164;-55
2021/08/23 03:44:29;;;;;;;15.95;14.27;;;;;;;;;;2080268;28;20173;-53
2021/08/23 03:45:29;;;;;;;14.93;13.35;;;;;;;;;;2075721;28;20211;-54
2021/08/23 03:46:32;;;;;;;16.17;13.60;;;;;;;;;;2081814;28;20654;-51
2021/08/23 03:47:32;;;;;;;14.98;13.50;;;;;;;;;;2073330;28;20661;-58
2021/08/23 03:48:33;;;;;;;15.52;13.93;;;;;;;;;;2080861;28;20180;-48
2021/08/23 03:49:33;;;;;;;15.68;14.18;;;;;;;;;;2079202;28;20180;-53
2021/08/23 03:50:34;;;;;;;15.20;13.45;;;;;;;;;;2072372;28;20181;-52
2021/08/23 03:51:34;;;;;;;15.15;13.80;;;;;;;;;;2072462;28;20181;-49
2021/08/23 03:52:34;;;;;;;15.13;13.52;;;;;;;;;;2080461;28;20197;-49
2021/08/23 03:53:35;;;;;;;15.63;14.02;;;;;;;;;;2080695;28;20176;-50
2021/08/23 03:54:35;;;;;;;14.82;13.32;;;;;;;;;;2077557;28;20208;-50
2021/08/23 03:55:35;;;;;;;14.70;13.27;;;;;;;;;;2065157;28;20173;-51
2021/08/23 03:56:35;;;;;;;17.63;14.13;;;;;;;;;;2068283;28;20190;-51
2021/08/23 03:57:36;;;;;;;15.77;14.25;;;;;;;;;;2073356;28;20279;-49
2021/08/23 03:58:37;;;;;;;16.35;14.65;;;;;;;;;;2075912;28;20663;-50
2021/08/23 03:59:37;;;;;;;15.00;13.45;;;;;;;;;;2076502;28;20249;-50
2021/08/23 04:00:37;;;;;;;16.95;15.02;;;;;;;;;;2081160;28;20598;-49
2021/08/23 04:01:37;;;;;;;15.50;14.00;;;;;;;;;;2079830;28;20176;-51
2021/08/23 04:02:38;;;;;;;15.82;14.23;;;;;;;;;;2081146;28;20219;-50
2021/08/23 04:03:38;;;;;;;17.23;14.60;;;;;;;;;;2079901;28;20172;-48
2021/08/23 04:04:38;;;;;;;17.20;15.40;;;;;;;;;;2077474;28;20594;-54
2021/08/23 04:05:38;;;;;;;17.02;14.32;;;;;;;;;;2081204;28;20176;-55
2021/08/23 04:06:43;;;;;;;15.95;14.35;;;;;;;;;;2074497;28;20191;-52
2021/08/23 04:07:44;;;;;;;16.63;14.88;;;;;;;;;;2080823;28;20180;-56
2021/08/23 04:08:44;;;;;;;16.60;14.90;;;;;;;;;;2080688;28;20274;-55
2021/08/23 04:09:44;;;;;;;17.08;15.48;;;;;;;;;;2080927;28;20196;-55
2021/08/23 04:10:47;;;;;;;16.15;14.55;;;;;;;;;;2079406;28;20184;-56
2021/08/23 04:11:48;;;;;;;19.23;15.27;;;;;;;;;;2081311;28;20696;-53
2021/08/23 04:12:48;;;;;;;16.30;14.60;;;;;;;;;;2067527;28;20209;-53
2021/08/23 04:13:48;;;;;;;17.73;15.65;;;;;;;;;;2072913;28;20272;-55
2021/08/23 04:14:48;;;;;;;19.67;16.50;;;;;;;;;;2081482;28;20212;-52
2021/08/23 04:15:49;;;;;;;18.08;15.98;;;;;;;;;;2075781;28;20546;-54
2021/08/23 04:16:49;;;;;;;18.08;15.88;;;;;;;;;;2072965;28;20553;-53
2021/08/23 04:17:49;;;;;;;17.60;15.40;;;;;;;;;;2064181;28;20886;-54
2021/08/23 04:18:49;;;;;;;18.20;15.70;;;;;;;;;;2071746;28;20183;-54
2021/08/23 04:19:50;;;;;;;20.02;16.83;;;;;;;;;;2078474;28;20183;-52
2021/08/23 04:20:50;;;;;;;18.88;16.98;;;;;;;;;;2075720;28;20295;-50
2021/08/23 04:21:50;;;;;;;20.42;16.83;;;;;;;;;;2080509;28;20207;-51
2021/08/23 04:22:51;;;;;;;18.75;16.92;;;;;;;;;;2080765;28;20260;-55
2021/08/23 04:23:51;;;;;;;18.52;16.63;;;;;;;;;;2067764;28;20759;-50
2021/08/23 04:24:51;;;;;;;17.65;15.00;;;;;;;;;;2064009;28;20185;-52
2021/08/23 04:25:51;;;;;;;20.45;18.10;;;;;;;;;;2071273;28;20184;-50
2021/08/23 04:26:52;;;;;;;18.90;16.90;;;;;;;;;;2080726;28;20186;-55
2021/08/23 04:27:52;;;;;;;19.33;17.30;;;;;;;;;;2072005;28;20204;-55
2021/08/23 04:28:52;;;;;;;18.50;16.70;;;;;;;;;;2071576;28;20629;-51
2021/08/23 04:29:52;;;;;;;19.83;17.05;;;;;;;;;;2080939;28;20204;-51
2021/08/23 04:30:52;;;;;;;19.42;17.35;;;;;;;;;;2079889;28;20169;-53
2021/08/23 04:31:53;;;;;;;21.33;17.30;;;;;;;;;;2074161;28;20180;-50
2021/08/23 04:32:53;;;;;;;20.38;17.17;;;;;;;;;;2073149;28;20827;-57
2021/08/23 04:33:53;;;;;;;22.25;17.88;;;;;;;;;;2076865;28;20314;-54
2021/08/23 04:34:53;;;;;;;19.38;17.20;;;;;;;;;;2081060;28;20697;-56
2021/08/23 04:35:54;;;;;;;19.63;17.52;;;;;;;;;;2080640;28;20176;-57
2021/08/23 04:36:54;;;;;;;20.70;18.08;;;;;;;;;;2072193;28;20204;-57
2021/08/23 04:37:54;;;;;;;20.52;17.92;;;;;;;;;;2068227;28;20232;-52
2021/08/23 04:38:55;;;;;;;21.88;19.58;;;;;;;;;;2072226;28;20623;-56
2021/08/23 04:39:55;;;;;;;22.73;18.50;;;;;;;;;;2068381;28;20557;-54
2021/08/23 04:40:55;;;;;;;23.88;17.65;;;;;;;;;;2080836;28;20593;-57
2021/08/23 04:41:56;;;;;;;21.30;18.70;;;;;;;;;;2076974;28;20168;-55
2021/08/23 04:42:56;;;;;;;20.42;18.25;;;;;;;;;;2080557;28;20185;-55
2021/08/23 04:43:56;;;;;;;19.38;17.33;;;;;;;;;;2076673;28;20241;-59
2021/08/23 04:44:56;;;;;;;21.15;18.67;;;;;;;;;;2080355;28;20164;-55
2021/08/23 04:45:57;;;;;;;22.27;18.85;;;;;;;;;;2078160;28;20179;-57
2021/08/23 04:46:57;;;;;;;20.83;18.73;;;;;;;;;;2080158;28;20263;-55
2021/08/23 04:47:57;;;;;;;25.60;18.25;;;;;;;;;;2067079;28;20169;-60
2021/08/23 04:48:57;;;;;;;24.27;19.20;;;;;;;;;;2071590;28;20176;-54
2021/08/23 04:49:58;;;;;;;23.35;19.42;;;;;;;;;;2080755;28;20191;-56
2021/08/23 04:50:58;;;;;;;22.60;19.92;;;;;;;;;;2078813;28;20180;-56
2021/08/23 04:51:58;;;;;;;19.30;17.23;;;;;;;;;;2078363;28;20163;-57
2021/08/23 04:52:58;;;;;;;24.10;19.38;;;;;;;;;;2081119;28;20176;-56
2021/08/23 04:53:59;;;;;;;23.08;20.60;;;;;;;;;;2081067;28;20184;-58
2021/08/23 04:55:00;;;;;;;24.70;22.13;;;;;;;;;;2077555;28;20168;-56
2021/08/23 04:56:01;;;;;;;20.73;18.35;;;;;;;;;;2080385;28;20200;-56
2021/08/23 04:57:02;;;;;;;21.85;19.40;;;;;;;;;;2080459;28;20559;-56
2021/08/23 04:58:02;;;;;;;21.35;19.15;;;;;;;;;;2080160;28;20187;-56
2021/08/23 04:59:02;;;;;;;24.90;20.52;;;;;;;;;;2079173;28;20168;-60
2021/08/23 05:00:03;;;;;;;22.95;20.10;;;;;;;;;;2080589;28;20187;-56
2021/08/23 05:01:04;;;;;;;22.15;19.38;;;;;;;;;;2080104;28;20196;-58
2021/08/23 05:02:04;;;;;;;24.05;20.17;;;;;;;;;;2080546;28;20557;-60
2021/08/23 05:03:06;;;;;;;21.85;19.13;;;;;;;;;;2080491;28;20226;-57
2021/08/23 05:04:06;;;;;;;23.10;20.05;;;;;;;;;;2078563;28;20187;-54
2021/08/23 05:05:07;;;;;;;24.42;21.23;;;;;;;;;;2077478;28;20648;-56
2021/08/23 05:06:07;;;;;;;22.90;20.45;;;;;;;;;;2080378;28;20172;-53
2021/08/23 05:07:07;;;;;;;24.80;21.73;;;;;;;;;;2068540;28;20267;-50
2021/08/23 05:08:08;;;;;;;25.77;22.05;;;;;;;;;;2070055;28;20204;-55
2021/08/23 05:09:08;;;;;;;25.10;20.88;;;;;;;;;;2078557;28;20168;-54
2021/08/23 05:10:08;;;;;;;23.15;19.80;;;;;;;;;;2077555;28;20169;-58
2021/08/23 05:11:09;;;;;;;25.60;20.70;;;;;;;;;;2079084;28;20164;-53
2021/08/23 05:12:09;;;;;;;23.98;20.75;;;;;;;;;;2077977;28;20210;-57
2021/08/23 05:13:09;;;;;;;23.55;21.13;;;;;;;;;;2080112;28;20645;-54
2021/08/23 05:14:10;;;;;;;24.00;21.48;;;;;;;;;;2082229;28;20255;-54
2021/08/23 05:15:11;;;;;;;24.95;22.25;;;;;;;;;;2071906;28;20556;-55
2021/08/23 05:16:11;;;;;;;25.05;22.13;;;;;;;;;;2073052;28;20202;-55
2021/08/23 05:17:11;;;;;;;26.08;22.63;;;;;;;;;;2073516;28;20270;-58
2021/08/23 05:18:11;;;;;;;25.65;21.92;;;;;;;;;;2072966;28;20531;-56
2021/08/23 05:19:12;;;;;;;26.15;22.55;;;;;;;;;;2072116;28;20195;-49
2021/08/23 05:20:12;;;;;;;24.95;22.00;;;;;;;;;;2077034;28;20215;-49
2021/08/23 05:21:12;;;;;;;25.00;21.40;;;;;;;;;;2082105;28;20179;-53
2021/08/23 05:22:12;;;;;;;26.55;22.88;;;;;;;;;;2071713;28;20212;-53
2021/08/23 05:23:13;;;;;;;25.48;22.73;;;;;;;;;;2073456;28;20171;-55
2021/08/23 05:24:13;;;;;;;26.13;22.90;;;;;;;;;;2081781;28;20187;-53
2021/08/23 05:25:15;;;;;;;25.77;22.98;;;;;;;;;;2079739;28;20222;-53
2021/08/23 05:26:15;;;;;;;30.92;24.85;;;;;;;;;;2079922;28;20570;-55
2021/08/23 05:27:15;;;;;;;28.30;24.13;;;;;;;;;;2076184;28;20186;-52
2021/08/23 05:28:15;;;;;;;26.65;23.92;;;;;;;;;;2080302;28;20637;-56
2021/08/23 05:29:15;;;;;;;29.05;23.42;;;;;;;;;;2081825;28;20263;-55
2021/08/23 05:30:16;;;;;;;30.45;24.67;;;;;;;;;;2073861;28;20184;-56
2021/08/23 05:31:16;;;;;;;27.27;24.30;;;;;;;;;;2073530;28;20169;-53
2021/08/23 05:32:17;;;;;;;30.45;24.73;;;;;;;;;;2081782;28;20203;-50
2021/08/23 05:33:17;;;;;;;28.98;24.98;;;;;;;;;;2082607;28;20179;-55
2021/08/23 05:34:17;;;;;;;31.23;26.70;;;;;;;;;;2082788;28;20258;-51
2021/08/23 05:35:18;;;;;;;30.80;25.83;;;;;;;;;;2082580;28;20175;-53
2021/08/23 05:36:18;;;;;;;35.45;26.77;;;;;;;;;;2082803;28;20168;-54
2021/08/23 05:37:20;;;;;;;30.83;26.80;;;;;;;;;;2081696;28;20176;-55
2021/08/23 05:38:20;;;;;;;31.27;27.10;;;;;;;;;;2081814;28;20246;-53
2021/08/23 05:39:20;;;;;;;34.85;27.63;;;;;;;;;;2082837;28;20177;-53
2021/08/23 05:40:23;;;;;;;30.95;25.70;;;;;;;;;;2073876;28;20156;-52
2021/08/23 05:41:25;;;;;;;34.38;26.63;;;;;;;;;;2074538;28;20177;-52
2021/08/23 05:42:25;;;;;;;37.40;27.30;;;;;;;;;;2082640;28;20192;-54
2021/08/23 05:43:26;;;;;;;38.05;28.75;;;;;;;;;;2082927;28;20196;-50
2021/08/23 05:44:26;;;;;;;30.08;25.60;;;;;;;;;;2081869;28;20207;-58
2021/08/23 05:45:26;;;;;;;32.35;26.45;;;;;;;;;;2082848;28;20212;-58
2021/08/23 05:46:26;;;;;;;37.35;27.67;;;;;;;;;;2081246;28;20233;-58
2021/08/23 05:47:27;;;;;;;32.40;27.40;;;;;;;;;;2082840;28;20579;-59
2021/08/23 05:48:29;;;;;;;29.10;25.23;;;;;;;;;;2075824;28;20196;-55
2021/08/23 05:49:30;;;;;;;33.45;26.60;;;;;;;;;;2066881;28;20252;-54
2021/08/23 05:50:30;;;;;;;31.63;26.65;;;;;;;;;;2069387;28;20257;-55
2021/08/23 05:51:30;;;;;;;30.52;24.73;;;;;;;;;;2074483;28;20699;-52
2021/08/23 05:52:30;;;;;;;29.83;24.20;;;;;;;;;;2075520;28;20188;-53
2021/08/23 05:53:31;;;;;;;29.30;24.33;;;;;;;;;;2075015;28;20556;-54